sensor_id;sensor_type;location;lat;lon;timestamp;pressure;altitude;pressure_sealevel;temperature;humidity
11395;BME280;5753;54.402;10.220;2023-02-28T00:00:00;103229.50;;;15.29;39.11
11395;BME280;5753;54.402;10.220;2023-02-28T00:02:26;103231.84;;;15.22;39.32
11395;BME280;5753;54.402;10.220;2023-02-28T00:04:53;103228.47;;;15.00;39.56
11395;BME280;5753;54.402;10.220;2023-02-28T00:07:27;103220.81;;;14.57;40.31
11395;BME280;5753;54.402;10.220;2023-02-28T00:09:54;103215.72;;;14.83;40.19
11395;BME280;5753;54.402;10.220;2023-02-28T00:12:20;103210.41;;;15.03;39.54
11395;BME280;5753;54.402;10.220;2023-02-28T00:14:46;103217.97;;;14.29;41.27
11395;BME280;5753;54.402;10.220;2023-02-28T00:17:12;103217.81;;;14.69;40.39
11395;BME280;5753;54.402;10.220;2023-02-28T00:19:39;103220.09;;;14.84;39.99
11395;BME280;5753;54.402;10.220;2023-02-28T00:22:05;103220.34;;;14.45;41.29
11395;BME280;5753;54.402;10.220;2023-02-28T00:24:31;103230.66;;;14.66;40.85
11395;BME280;5753;54.402;10.220;2023-02-28T00:26:57;103222.72;;;15.09;39.92
11395;BME280;5753;54.402;10.220;2023-02-28T00:29:23;103220.06;;;15.07;40.08
11395;BME280;5753;54.402;10.220;2023-02-28T00:31:50;103217.91;;;14.96;40.51
11395;BME280;5753;54.402;10.220;2023-02-28T00:34:16;103216.88;;;15.15;40.00
11395;BME280;5753;54.402;10.220;2023-02-28T00:36:42;103215.03;;;15.12;40.25
11395;BME280;5753;54.402;10.220;2023-02-28T00:39:11;103211.03;;;14.72;41.03
11395;BME280;5753;54.402;10.220;2023-02-28T00:41:37;103220.97;;;14.84;40.81
11395;BME280;5753;54.402;10.220;2023-02-28T00:46:39;103226.69;;;14.99;40.43
11395;BME280;5753;54.402;10.220;2023-02-28T00:49:06;103229.16;;;15.19;40.33
11395;BME280;5753;54.402;10.220;2023-02-28T00:51:32;103231.50;;;14.42;41.73
11395;BME280;5753;54.402;10.220;2023-02-28T00:53:58;103229.13;;;14.71;41.00
11395;BME280;5753;54.402;10.220;2023-02-28T00:56:24;103224.38;;;15.07;40.30
11395;BME280;5753;54.402;10.220;2023-02-28T00:58:50;103232.22;;;15.08;40.29
11395;BME280;5753;54.402;10.220;2023-02-28T01:01:16;103234.34;;;15.19;40.13
11395;BME280;5753;54.402;10.220;2023-02-28T01:03:42;103236.31;;;15.26;40.08
11395;BME280;5753;54.402;10.220;2023-02-28T01:06:09;103233.06;;;15.07;40.83
11395;BME280;5753;54.402;10.220;2023-02-28T01:08:35;103238.44;;;14.88;41.09
11395;BME280;5753;54.402;10.220;2023-02-28T01:11:09;103230.47;;;14.84;41.42
11395;BME280;5753;54.402;10.220;2023-02-28T01:13:35;103233.13;;;14.85;41.17
11395;BME280;5753;54.402;10.220;2023-02-28T01:16:01;103225.47;;;14.66;41.82
11395;BME280;5753;54.402;10.220;2023-02-28T01:18:28;103228.25;;;14.94;41.27
11395;BME280;5753;54.402;10.220;2023-02-28T01:20:54;103222.88;;;14.66;41.73
11395;BME280;5753;54.402;10.220;2023-02-28T01:23:22;103220.72;;;15.02;40.90
11395;BME280;5753;54.402;10.220;2023-02-28T01:25:50;103217.94;;;14.49;41.84
11395;BME280;5753;54.402;10.220;2023-02-28T01:28:16;103216.53;;;14.82;41.17
11395;BME280;5753;54.402;10.220;2023-02-28T01:30:46;103213.44;;;14.92;40.93
11395;BME280;5753;54.402;10.220;2023-02-28T01:33:13;103216.88;;;14.91;40.90
11395;BME280;5753;54.402;10.220;2023-02-28T01:35:39;103204.94;;;14.27;41.98
11395;BME280;5753;54.402;10.220;2023-02-28T01:38:05;103205.03;;;13.44;43.86
11395;BME280;5753;54.402;10.220;2023-02-28T01:40:31;103203.56;;;13.30;44.34
11395;BME280;5753;54.402;10.220;2023-02-28T01:42:57;103211.59;;;13.36;44.24
11395;BME280;5753;54.402;10.220;2023-02-28T01:48:00;103214.00;;;13.52;43.97
11395;BME280;5753;54.402;10.220;2023-02-28T01:50:31;103208.88;;;12.94;45.37
11395;BME280;5753;54.402;10.220;2023-02-28T01:53:02;103216.22;;;13.84;43.79
11395;BME280;5753;54.402;10.220;2023-02-28T01:55:30;103215.16;;;13.79;43.49
11395;BME280;5753;54.402;10.220;2023-02-28T01:58:00;103217.22;;;13.67;44.23
11395;BME280;5753;54.402;10.220;2023-02-28T02:00:29;103211.41;;;13.31;44.77
11395;BME280;5753;54.402;10.220;2023-02-28T02:03:04;103212.16;;;13.91;43.66
11395;BME280;5753;54.402;10.220;2023-02-28T02:05:32;103219.97;;;14.36;42.79
11395;BME280;5753;54.402;10.220;2023-02-28T02:08:06;103217.97;;;14.29;42.76
11395;BME280;5753;54.402;10.220;2023-02-28T02:10:43;103200.47;;;14.45;42.38
11395;BME280;5753;54.402;10.220;2023-02-28T02:19:14;103205.34;;;14.60;42.55
11395;BME280;5753;54.402;10.220;2023-02-28T02:33:03;103199.56;;;14.00;43.75
11395;BME280;5753;54.402;10.220;2023-02-28T02:38:31;103206.63;;;12.82;46.43
11395;BME280;5753;54.402;10.220;2023-02-28T02:43:53;103202.13;;;13.36;44.98
11395;BME280;5753;54.402;10.220;2023-02-28T02:46:47;103204.50;;;12.74;46.41
11395;BME280;5753;54.402;10.220;2023-02-28T02:49:42;103209.94;;;12.60;46.49
11395;BME280;5753;54.402;10.220;2023-02-28T02:52:10;103220.81;;;12.34;47.14
11395;BME280;5753;54.402;10.220;2023-02-28T02:54:40;103212.81;;;12.67;45.96
11395;BME280;5753;54.402;10.220;2023-02-28T02:57:15;103212.97;;;12.33;47.00
11395;BME280;5753;54.402;10.220;2023-02-28T02:59:44;103210.63;;;11.84;48.38
11395;BME280;5753;54.402;10.220;2023-02-28T03:02:13;103214.56;;;11.77;48.44
11395;BME280;5753;54.402;10.220;2023-02-28T03:05:04;103210.63;;;12.56;46.62
11395;BME280;5753;54.402;10.220;2023-02-28T03:07:32;103209.41;;;12.87;45.20
11395;BME280;5753;54.402;10.220;2023-02-28T03:09:58;103216.63;;;13.33;43.88
11395;BME280;5753;54.402;10.220;2023-02-28T03:12:40;103207.50;;;13.21;43.98
11395;BME280;5753;54.402;10.220;2023-02-28T03:16:17;103212.28;;;13.32;43.62
11395;BME280;5753;54.402;10.220;2023-02-28T03:18:41;103214.38;;;13.21;43.86
11395;BME280;5753;54.402;10.220;2023-02-28T03:21:23;103216.63;;;12.94;43.30
11395;BME280;5753;54.402;10.220;2023-02-28T03:24:08;103220.19;;;12.96;43.18
11395;BME280;5753;54.402;10.220;2023-02-28T03:26:41;103223.41;;;12.73;43.62
11395;BME280;5753;54.402;10.220;2023-02-28T03:29:21;103225.16;;;12.35;44.73
11395;BME280;5753;54.402;10.220;2023-02-28T03:34:39;103224.56;;;12.23;43.67
11395;BME280;5753;54.402;10.220;2023-02-28T03:37:20;103225.22;;;12.19;44.44
11395;BME280;5753;54.402;10.220;2023-02-28T03:40:26;103226.78;;;12.15;44.13
11395;BME280;5753;54.402;10.220;2023-02-28T03:42:48;103218.38;;;12.02;44.45
11395;BME280;5753;54.402;10.220;2023-02-28T03:45:28;103219.63;;;12.10;44.42
11395;BME280;5753;54.402;10.220;2023-02-28T03:50:45;103226.72;;;12.14;44.23
11395;BME280;5753;54.402;10.220;2023-02-28T03:53:25;103224.06;;;11.94;44.89
11395;BME280;5753;54.402;10.220;2023-02-28T03:55:58;103231.19;;;11.82;45.00
11395;BME280;5753;54.402;10.220;2023-02-28T04:04:02;103237.94;;;11.62;44.10
11395;BME280;5753;54.402;10.220;2023-02-28T04:06:31;103234.69;;;11.32;45.47
11395;BME280;5753;54.402;10.220;2023-02-28T04:08:58;103235.84;;;11.21;45.60
11395;BME280;5753;54.402;10.220;2023-02-28T04:11:32;103232.59;;;11.25;44.46
11395;BME280;5753;54.402;10.220;2023-02-28T04:14:01;103237.28;;;11.16;44.97
11395;BME280;5753;54.402;10.220;2023-02-28T04:16:28;103238.59;;;11.08;45.38
11395;BME280;5753;54.402;10.220;2023-02-28T04:18:54;103241.66;;;11.01;44.65
11395;BME280;5753;54.402;10.220;2023-02-28T04:22:01;103229.09;;;10.91;44.50
11395;BME280;5753;54.402;10.220;2023-02-28T04:24:25;103231.41;;;10.86;44.99
11395;BME280;5753;54.402;10.220;2023-02-28T04:26:54;103232.59;;;10.77;45.15
11395;BME280;5753;54.402;10.220;2023-02-28T04:31:49;103235.91;;;10.74;45.47
11395;BME280;5753;54.402;10.220;2023-02-28T04:34:15;103233.56;;;10.79;45.86
11395;BME280;5753;54.402;10.220;2023-02-28T04:36:42;103238.91;;;10.82;45.78
11395;BME280;5753;54.402;10.220;2023-02-28T04:39:08;103241.78;;;10.71;45.24
11395;BME280;5753;54.402;10.220;2023-02-28T04:41:35;103241.78;;;10.55;45.95
11395;BME280;5753;54.402;10.220;2023-02-28T04:44:01;103244.19;;;10.52;44.84
11395;BME280;5753;54.402;10.220;2023-02-28T04:46:28;103242.59;;;10.39;45.40
11395;BME280;5753;54.402;10.220;2023-02-28T04:48:54;103242.34;;;10.35;45.36
11395;BME280;5753;54.402;10.220;2023-02-28T04:51:20;103233.50;;;10.30;45.25
11395;BME280;5753;54.402;10.220;2023-02-28T04:53:47;103240.41;;;10.31;44.85
11395;BME280;5753;54.402;10.220;2023-02-28T04:56:16;103235.09;;;10.28;45.38
11395;BME280;5753;54.402;10.220;2023-02-28T04:58:43;103229.22;;;10.30;45.33
11395;BME280;5753;54.402;10.220;2023-02-28T05:01:25;103234.88;;;10.39;45.65
11395;BME280;5753;54.402;10.220;2023-02-28T05:03:53;103231.78;;;10.45;45.92
11395;BME280;5753;54.402;10.220;2023-02-28T05:06:21;103232.41;;;10.41;45.68
11395;BME280;5753;54.402;10.220;2023-02-28T05:08:47;103232.69;;;10.31;45.71
11395;BME280;5753;54.402;10.220;2023-02-28T05:11:19;103232.59;;;10.29;45.94
11395;BME280;5753;54.402;10.220;2023-02-28T05:13:46;103232.69;;;10.16;45.79
11395;BME280;5753;54.402;10.220;2023-02-28T05:16:13;103224.00;;;10.14;45.25
11395;BME280;5753;54.402;10.220;2023-02-28T05:18:39;103232.44;;;10.12;45.28
11395;BME280;5753;54.402;10.220;2023-02-28T05:21:12;103227.56;;;10.01;46.19
11395;BME280;5753;54.402;10.220;2023-02-28T05:23:49;103221.41;;;10.14;45.46
11395;BME280;5753;54.402;10.220;2023-02-28T05:26:15;103225.25;;;10.21;45.85
11395;BME280;5753;54.402;10.220;2023-02-28T05:28:41;103224.88;;;10.15;46.76
11395;BME280;5753;54.402;10.220;2023-02-28T05:31:11;103231.47;;;10.24;47.20
11395;BME280;5753;54.402;10.220;2023-02-28T05:33:38;103236.94;;;10.45;46.64
11395;BME280;5753;54.402;10.220;2023-02-28T05:36:05;103232.44;;;10.73;46.22
11395;BME280;5753;54.402;10.220;2023-02-28T05:38:31;103246.94;;;10.71;46.57
11395;BME280;5753;54.402;10.220;2023-02-28T05:40:57;103252.44;;;10.78;46.36
11395;BME280;5753;54.402;10.220;2023-02-28T05:43:24;103246.78;;;10.68;46.60
11395;BME280;5753;54.402;10.220;2023-02-28T05:45:50;103245.25;;;10.72;46.34
11395;BME280;5753;54.402;10.220;2023-02-28T05:48:16;103256.44;;;10.56;46.29
11395;BME280;5753;54.402;10.220;2023-02-28T05:50:44;103244.53;;;10.58;45.97
11395;BME280;5753;54.402;10.220;2023-02-28T05:53:12;103252.41;;;10.45;46.07
11395;BME280;5753;54.402;10.220;2023-02-28T05:55:38;103252.03;;;10.39;45.84
11395;BME280;5753;54.402;10.220;2023-02-28T05:58:04;103256.38;;;10.40;46.35
11395;BME280;5753;54.402;10.220;2023-02-28T06:00:30;103256.38;;;10.40;46.11
11395;BME280;5753;54.402;10.220;2023-02-28T06:02:56;103264.13;;;10.40;45.87
11395;BME280;5753;54.402;10.220;2023-02-28T06:05:25;103258.00;;;10.38;45.91
11395;BME280;5753;54.402;10.220;2023-02-28T06:07:52;103258.63;;;10.34;46.18
11395;BME280;5753;54.402;10.220;2023-02-28T06:10:18;103260.78;;;10.41;46.16
11395;BME280;5753;54.402;10.220;2023-02-28T06:12:45;103265.47;;;10.33;46.42
11395;BME280;5753;54.402;10.220;2023-02-28T06:15:15;103269.81;;;10.49;46.18
11395;BME280;5753;54.402;10.220;2023-02-28T06:17:43;103272.50;;;10.36;46.18
11395;BME280;5753;54.402;10.220;2023-02-28T06:20:10;103279.25;;;10.34;46.36
11395;BME280;5753;54.402;10.220;2023-02-28T06:22:39;103278.53;;;10.51;46.28
11395;BME280;5753;54.402;10.220;2023-02-28T06:25:06;103281.91;;;10.50;46.56
11395;BME280;5753;54.402;10.220;2023-02-28T06:27:33;103288.84;;;10.51;46.50
11395;BME280;5753;54.402;10.220;2023-02-28T06:29:59;103284.66;;;10.53;46.29
11395;BME280;5753;54.402;10.220;2023-02-28T06:32:25;103282.09;;;10.69;45.81
11395;BME280;5753;54.402;10.220;2023-02-28T06:34:52;103280.28;;;10.52;46.68
11395;BME280;5753;54.402;10.220;2023-02-28T06:37:19;103282.88;;;10.52;46.33
11395;BME280;5753;54.402;10.220;2023-02-28T06:39:45;103282.78;;;10.51;46.37
11395;BME280;5753;54.402;10.220;2023-02-28T06:42:11;103287.78;;;10.48;46.73
11395;BME280;5753;54.402;10.220;2023-02-28T06:44:38;103291.94;;;10.77;45.86
11395;BME280;5753;54.402;10.220;2023-02-28T06:47:06;103295.34;;;10.45;47.25
11395;BME280;5753;54.402;10.220;2023-02-28T06:49:34;103301.81;;;10.53;46.45
11395;BME280;5753;54.402;10.220;2023-02-28T06:52:00;103300.75;;;10.49;46.47
11395;BME280;5753;54.402;10.220;2023-02-28T06:54:26;103302.88;;;10.56;46.21
11395;BME280;5753;54.402;10.220;2023-02-28T06:56:53;103304.78;;;10.44;46.52
11395;BME280;5753;54.402;10.220;2023-02-28T06:59:20;103303.03;;;10.59;46.40
11395;BME280;5753;54.402;10.220;2023-02-28T07:01:47;103303.66;;;10.55;46.62
11395;BME280;5753;54.402;10.220;2023-02-28T07:04:13;103299.41;;;10.56;47.04
11395;BME280;5753;54.402;10.220;2023-02-28T07:06:39;103297.25;;;10.80;46.93
11395;BME280;5753;54.402;10.220;2023-02-28T07:09:05;103297.94;;;10.92;46.64
11395;BME280;5753;54.402;10.220;2023-02-28T07:11:32;103294.25;;;11.19;46.75
11395;BME280;5753;54.402;10.220;2023-02-28T07:13:58;103291.41;;;11.31;46.33
11395;BME280;5753;54.402;10.220;2023-02-28T07:16:25;103301.34;;;11.40;46.47
11395;BME280;5753;54.402;10.220;2023-02-28T07:18:55;103302.28;;;11.58;46.48
11395;BME280;5753;54.402;10.220;2023-02-28T07:21:21;103306.66;;;10.94;47.70
11395;BME280;5753;54.402;10.220;2023-02-28T07:23:47;103302.28;;;11.58;47.00
11395;BME280;5753;54.402;10.220;2023-02-28T07:26:16;103300.84;;;11.47;46.46
11395;BME280;5753;54.402;10.220;2023-02-28T07:28:44;103298.44;;;11.17;47.72
11395;BME280;5753;54.402;10.220;2023-02-28T07:31:11;103305.47;;;10.72;48.72
11395;BME280;5753;54.402;10.220;2023-02-28T07:33:37;103311.81;;;10.94;49.13
11395;BME280;5753;54.402;10.220;2023-02-28T07:36:07;103300.75;;;11.29;48.38
11395;BME280;5753;54.402;10.220;2023-02-28T07:38:35;103308.31;;;10.46;49.49
11395;BME280;5753;54.402;10.220;2023-02-28T07:41:02;103309.41;;;10.97;48.71
11395;BME280;5753;54.402;10.220;2023-02-28T07:43:34;103306.78;;;11.78;47.73
11395;BME280;5753;54.402;10.220;2023-02-28T07:46:18;103305.56;;;11.72;47.98
11395;BME280;5753;54.402;10.220;2023-02-28T07:48:47;103310.13;;;11.11;48.48
11395;BME280;5753;54.402;10.220;2023-02-28T07:51:13;103313.50;;;12.09;46.35
11395;BME280;5753;54.402;10.220;2023-02-28T07:53:39;103320.16;;;12.04;47.37
11395;BME280;5753;54.402;10.220;2023-02-28T07:56:06;103317.63;;;12.23;46.66
11395;BME280;5753;54.402;10.220;2023-02-28T07:58:32;103319.00;;;11.48;47.07
11395;BME280;5753;54.402;10.220;2023-02-28T08:01:05;103317.63;;;11.87;46.89
11395;BME280;5753;54.402;10.220;2023-02-28T08:03:32;103314.53;;;11.62;46.73
11395;BME280;5753;54.402;10.220;2023-02-28T08:05:58;103315.63;;;12.00;47.14
11395;BME280;5753;54.402;10.220;2023-02-28T08:08:24;103320.50;;;12.82;45.04
11395;BME280;5753;54.402;10.220;2023-02-28T08:10:55;103314.19;;;12.40;45.52
11395;BME280;5753;54.402;10.220;2023-02-28T08:13:21;103313.88;;;11.98;47.30
11395;BME280;5753;54.402;10.220;2023-02-28T08:15:47;103312.69;;;12.27;46.75
11395;BME280;5753;54.402;10.220;2023-02-28T08:18:13;103313.09;;;13.09;45.35
11395;BME280;5753;54.402;10.220;2023-02-28T08:20:39;103305.59;;;11.88;46.97
11395;BME280;5753;54.402;10.220;2023-02-28T08:23:05;103310.03;;;12.26;47.16
11395;BME280;5753;54.402;10.220;2023-02-28T08:25:32;103308.41;;;11.60;47.91
11395;BME280;5753;54.402;10.220;2023-02-28T08:27:58;103302.13;;;13.15;44.73
11395;BME280;5753;54.402;10.220;2023-02-28T08:30:24;103305.13;;;12.68;44.98
11395;BME280;5753;54.402;10.220;2023-02-28T08:32:50;103295.84;;;12.90;44.99
11395;BME280;5753;54.402;10.220;2023-02-28T08:35:16;103304.00;;;13.17;44.01
11395;BME280;5753;54.402;10.220;2023-02-28T08:37:42;103301.09;;;13.29;43.95
11395;BME280;5753;54.402;10.220;2023-02-28T08:40:09;103310.59;;;13.11;44.22
11395;BME280;5753;54.402;10.220;2023-02-28T08:42:36;103306.22;;;13.28;43.90
11395;BME280;5753;54.402;10.220;2023-02-28T08:45:02;103302.47;;;13.80;42.86
11395;BME280;5753;54.402;10.220;2023-02-28T08:47:28;103308.53;;;14.02;42.42
11395;BME280;5753;54.402;10.220;2023-02-28T08:49:55;103312.06;;;14.04;42.21
11395;BME280;5753;54.402;10.220;2023-02-28T08:52:21;103308.13;;;14.34;41.32
11395;BME280;5753;54.402;10.220;2023-02-28T08:54:47;103315.81;;;14.74;40.98
11395;BME280;5753;54.402;10.220;2023-02-28T08:57:13;103310.78;;;14.36;41.61
11395;BME280;5753;54.402;10.220;2023-02-28T08:59:39;103316.09;;;14.18;41.68
11395;BME280;5753;54.402;10.220;2023-02-28T09:02:05;103305.13;;;13.63;42.51
11395;BME280;5753;54.402;10.220;2023-02-28T09:04:33;103318.47;;;13.32;43.14
11395;BME280;5753;54.402;10.220;2023-02-28T09:06:59;103319.38;;;14.14;42.25
11395;BME280;5753;54.402;10.220;2023-02-28T09:09:25;103314.00;;;14.51;41.46
11395;BME280;5753;54.402;10.220;2023-02-28T09:11:51;103324.22;;;13.07;43.23
11395;BME280;5753;54.402;10.220;2023-02-28T09:14:18;103322.31;;;13.61;42.49
11395;BME280;5753;54.402;10.220;2023-02-28T09:16:44;103321.91;;;14.12;41.61
11395;BME280;5753;54.402;10.220;2023-02-28T09:19:13;103327.16;;;14.14;41.68
11395;BME280;5753;54.402;10.220;2023-02-28T09:21:40;103328.69;;;14.09;41.63
11395;BME280;5753;54.402;10.220;2023-02-28T09:24:07;103323.09;;;14.62;41.45
11395;BME280;5753;54.402;10.220;2023-02-28T09:26:33;103325.50;;;14.58;41.33
11395;BME280;5753;54.402;10.220;2023-02-28T09:29:00;103328.72;;;14.95;40.98
11395;BME280;5753;54.402;10.220;2023-02-28T09:31:28;103335.28;;;15.09;40.72
11395;BME280;5753;54.402;10.220;2023-02-28T09:33:56;103331.34;;;14.97;40.69
11395;BME280;5753;54.402;10.220;2023-02-28T09:36:24;103333.50;;;14.41;41.74
11395;BME280;5753;54.402;10.220;2023-02-28T09:38:51;103338.19;;;14.29;41.85
11395;BME280;5753;54.402;10.220;2023-02-28T09:41:24;103340.25;;;15.03;41.16
11395;BME280;5753;54.402;10.220;2023-02-28T09:43:56;103334.91;;;15.69;39.62
11395;BME280;5753;54.402;10.220;2023-02-28T09:46:42;103342.16;;;15.55;39.89
11395;BME280;5753;54.402;10.220;2023-02-28T09:49:20;103343.47;;;15.92;39.40
11395;BME280;5753;54.402;10.220;2023-02-28T09:52:02;103341.56;;;14.47;40.93
11395;BME280;5753;54.402;10.220;2023-02-28T09:54:32;103338.28;;;15.92;39.37
11395;BME280;5753;54.402;10.220;2023-02-28T09:57:09;103338.69;;;16.04;39.28
11395;BME280;5753;54.402;10.220;2023-02-28T09:59:42;103334.56;;;16.09;38.67
11395;BME280;5753;54.402;10.220;2023-02-28T10:02:19;103330.56;;;16.74;37.85
11395;BME280;5753;54.402;10.220;2023-02-28T10:05:08;103330.78;;;16.82;36.83
11395;BME280;5753;54.402;10.220;2023-02-28T10:10:30;103338.06;;;17.22;36.84
11395;BME280;5753;54.402;10.220;2023-02-28T10:13:00;103336.56;;;16.72;37.26
11395;BME280;5753;54.402;10.220;2023-02-28T10:15:30;103334.44;;;17.17;36.90
11395;BME280;5753;54.402;10.220;2023-02-28T10:18:01;103337.50;;;15.69;38.74
11395;BME280;5753;54.402;10.220;2023-02-28T10:20:29;103335.53;;;16.95;36.87
11395;BME280;5753;54.402;10.220;2023-02-28T10:25:25;103338.84;;;17.81;35.09
11395;BME280;5753;54.402;10.220;2023-02-28T10:28:08;103337.03;;;17.78;35.15
11395;BME280;5753;54.402;10.220;2023-02-28T10:30:40;103337.34;;;17.27;35.95
11395;BME280;5753;54.402;10.220;2023-02-28T10:33:21;103329.34;;;17.84;35.22
11395;BME280;5753;54.402;10.220;2023-02-28T10:35:48;103332.38;;;16.50;36.06
11395;BME280;5753;54.402;10.220;2023-02-28T10:38:26;103331.09;;;17.21;35.24
11395;BME280;5753;54.402;10.220;2023-02-28T10:41:11;103337.50;;;17.97;34.99
11395;BME280;5753;54.402;10.220;2023-02-28T10:43:41;103332.00;;;18.20;34.23
11395;BME280;5753;54.402;10.220;2023-02-28T10:48:42;103331.06;;;16.91;34.85
11395;BME280;5753;54.402;10.220;2023-02-28T10:51:15;103331.50;;;17.99;34.25
11395;BME280;5753;54.402;10.220;2023-02-28T10:53:55;103331.47;;;18.35;33.24
11395;BME280;5753;54.402;10.220;2023-02-28T10:56:23;103333.50;;;17.76;34.12
11395;BME280;5753;54.402;10.220;2023-02-28T10:58:57;103330.41;;;19.01;33.18
11395;BME280;5753;54.402;10.220;2023-02-28T11:03:58;103330.44;;;15.65;35.97
11395;BME280;5753;54.402;10.220;2023-02-28T11:06:32;103327.44;;;16.05;35.82
11395;BME280;5753;54.402;10.220;2023-02-28T11:09:03;103325.78;;;17.81;33.73
11395;BME280;5753;54.402;10.220;2023-02-28T11:11:41;103326.09;;;17.93;33.58
11395;BME280;5753;54.402;10.220;2023-02-28T11:14:22;103324.06;;;18.52;32.80
11395;BME280;5753;54.402;10.220;2023-02-28T11:16:50;103320.75;;;17.88;33.55
11395;BME280;5753;54.402;10.220;2023-02-28T11:19:24;103320.72;;;18.21;32.61
11395;BME280;5753;54.402;10.220;2023-02-28T11:21:58;103314.28;;;16.81;34.26
11395;BME280;5753;54.402;10.220;2023-02-28T11:24:37;103313.72;;;18.56;33.23
11395;BME280;5753;54.402;10.220;2023-02-28T11:27:24;103305.03;;;19.40;32.17
11395;BME280;5753;54.402;10.220;2023-02-28T11:29:51;103306.63;;;16.05;35.53
11395;BME280;5753;54.402;10.220;2023-02-28T11:32:23;103314.81;;;16.70;34.58
11395;BME280;5753;54.402;10.220;2023-02-28T11:37:38;103308.03;;;18.01;35.63
11395;BME280;5753;54.402;10.220;2023-02-28T11:40:30;103305.66;;;18.85;34.20
11395;BME280;5753;54.402;10.220;2023-02-28T11:48:50;103305.44;;;19.62;31.66
11395;BME280;5753;54.402;10.220;2023-02-28T11:51:34;103297.72;;;19.24;32.63
11395;BME280;5753;54.402;10.220;2023-02-28T11:56:48;103296.47;;;19.97;31.22
11395;BME280;5753;54.402;10.220;2023-02-28T11:59:56;103292.63;;;19.30;31.23
11395;BME280;5753;54.402;10.220;2023-02-28T12:11:10;103288.03;;;19.64;31.59
11395;BME280;5753;54.402;10.220;2023-02-28T12:17:02;103277.28;;;19.48;31.29
11395;BME280;5753;54.402;10.220;2023-02-28T12:27:43;103264.47;;;20.77;29.39
11395;BME280;5753;54.402;10.220;2023-02-28T12:32:51;103264.47;;;19.62;32.07
11395;BME280;5753;54.402;10.220;2023-02-28T12:35:26;103253.50;;;19.86;31.48
11395;BME280;5753;54.402;10.220;2023-02-28T12:38:05;103250.06;;;18.51;32.00
11395;BME280;5753;54.402;10.220;2023-02-28T12:40:43;103255.66;;;18.31;32.19
11395;BME280;5753;54.402;10.220;2023-02-28T12:43:13;103240.25;;;18.43;32.40
11395;BME280;5753;54.402;10.220;2023-02-28T12:45:51;103236.16;;;19.90;30.95
11395;BME280;5753;54.402;10.220;2023-02-28T12:48:27;103233.53;;;19.90;30.91
11395;BME280;5753;54.402;10.220;2023-02-28T12:50:57;103227.16;;;21.01;29.94
11395;BME280;5753;54.402;10.220;2023-02-28T12:58:58;103229.47;;;23.07;27.52
11395;BME280;5753;54.402;10.220;2023-02-28T13:09:21;103217.44;;;25.41;24.17
11395;BME280;5753;54.402;10.220;2023-02-28T13:11:50;103217.81;;;26.01;22.83
11395;BME280;5753;54.402;10.220;2023-02-28T13:14:21;103216.72;;;26.19;23.32
11395;BME280;5753;54.402;10.220;2023-02-28T13:19:28;103215.31;;;27.26;21.77
11395;BME280;5753;54.402;10.220;2023-02-28T13:21:56;103207.72;;;27.58;20.65
11395;BME280;5753;54.402;10.220;2023-02-28T13:27:11;103210.59;;;29.19;19.70
11395;BME280;5753;54.402;10.220;2023-02-28T13:29:43;103200.97;;;29.15;19.77
11395;BME280;5753;54.402;10.220;2023-02-28T13:34:38;103204.75;;;29.74;18.64
11395;BME280;5753;54.402;10.220;2023-02-28T13:42:48;103206.09;;;29.58;18.25
11395;BME280;5753;54.402;10.220;2023-02-28T13:45:29;103199.78;;;31.13;18.01
11395;BME280;5753;54.402;10.220;2023-02-28T13:48:16;103199.69;;;30.60;18.18
11395;BME280;5753;54.402;10.220;2023-02-28T13:50:43;103198.59;;;30.06;17.66
11395;BME280;5753;54.402;10.220;2023-02-28T13:58:41;103196.50;;;30.47;17.59
11395;BME280;5753;54.402;10.220;2023-02-28T14:06:36;103181.47;;;32.30;15.98
11395;BME280;5753;54.402;10.220;2023-02-28T14:09:25;103193.97;;;30.72;17.13
11395;BME280;5753;54.402;10.220;2023-02-28T14:11:52;103191.16;;;30.18;18.93
11395;BME280;5753;54.402;10.220;2023-02-28T14:17:03;103184.66;;;30.57;18.42
11395;BME280;5753;54.402;10.220;2023-02-28T14:19:35;103185.72;;;31.36;17.70
11395;BME280;5753;54.402;10.220;2023-02-28T14:33:54;103163.16;;;31.19;18.12
11395;BME280;5753;54.402;10.220;2023-02-28T14:36:33;103169.78;;;31.59;17.51
11395;BME280;5753;54.402;10.220;2023-02-28T14:41:40;103166.13;;;31.61;17.27
11395;BME280;5753;54.402;10.220;2023-02-28T14:44:24;103168.91;;;33.21;15.79
11395;BME280;5753;54.402;10.220;2023-02-28T14:47:04;103168.91;;;33.82;15.54
11395;BME280;5753;54.402;10.220;2023-02-28T14:49:45;103168.22;;;32.72;16.31
11395;BME280;5753;54.402;10.220;2023-02-28T14:52:20;103169.53;;;31.91;17.39
11395;BME280;5753;54.402;10.220;2023-02-28T14:54:58;103162.56;;;31.87;17.28
11395;BME280;5753;54.402;10.220;2023-02-28T14:57:30;103162.22;;;31.47;17.20
11395;BME280;5753;54.402;10.220;2023-02-28T15:02:29;103163.00;;;30.97;18.07
11395;BME280;5753;54.402;10.220;2023-02-28T15:05:09;103158.69;;;30.65;17.67
11395;BME280;5753;54.402;10.220;2023-02-28T15:07:43;103158.31;;;31.04;17.47
11395;BME280;5753;54.402;10.220;2023-02-28T15:10:25;103165.59;;;32.02;17.07
11395;BME280;5753;54.402;10.220;2023-02-28T15:15:24;103161.28;;;31.98;16.53
11395;BME280;5753;54.402;10.220;2023-02-28T15:17:54;103149.38;;;32.53;16.57
11395;BME280;5753;54.402;10.220;2023-02-28T15:20:24;103150.22;;;32.08;16.61
11395;BME280;5753;54.402;10.220;2023-02-28T15:22:52;103151.84;;;32.81;16.28
11395;BME280;5753;54.402;10.220;2023-02-28T15:25:21;103154.56;;;31.38;17.07
11395;BME280;5753;54.402;10.220;2023-02-28T15:27:54;103152.69;;;30.87;18.04
11395;BME280;5753;54.402;10.220;2023-02-28T15:30:25;103152.41;;;30.68;18.21
11395;BME280;5753;54.402;10.220;2023-02-28T15:33:29;103151.88;;;30.85;18.03